Time;durP1;ratioP1;P1;durP2;ratioP2;P2;SDS_P1;SDS_P2;PMS_P1;PMS_P2;Temp;Humidity;BMP_temperature;BMP_pressure;BME280_temperature;BME280_humidity;BME280_pressure;Samples;Min_cycle;Max_cycle;Signal;HPM_P1;HPM_P2
2022/05/23 00:00:00;;;;;;;1.63;1.08;;;14.50;59.60;;;;;;5089364;28;20205;-58
2022/05/23 00:02:31;;;;;;;3.10;1.05;;;14.50;59.60;;;;;;5089498;28;20310;-59
2022/05/23 00:05:03;;;;;;;2.15;0.90;;;14.50;59.70;;;;;;5089563;28;20223;-58
2022/05/23 00:07:35;;;;;;;1.42;1.00;;;14.60;59.70;;;;;;5089427;28;20195;-58
2022/05/23 00:10:07;;;;;;;1.80;0.90;;;14.60;59.70;;;;;;5088873;28;20275;-58
2022/05/23 00:12:39;;;;;;;1.30;0.85;;;14.60;59.60;;;;;;5089461;28;20601;-58
2022/05/23 00:15:12;;;;;;;1.63;0.95;;;14.70;59.60;;;;;;5089476;28;20563;-58
2022/05/23 00:17:43;;;;;;;1.35;1.00;;;14.60;59.50;;;;;;5089950;28;20247;-58
2022/05/23 00:20:19;;;;;;;2.20;1.00;;;14.70;59.60;;;;;;5088854;28;20240;-58
2022/05/23 00:22:50;;;;;;;1.52;0.80;;;14.70;59.60;;;;;;5089156;28;20217;-58
2022/05/23 00:25:20;;;;;;;1.52;1.10;;;14.80;59.70;;;;;;5088687;28;20251;-58
2022/05/23 00:27:51;;;;;;;1.25;0.90;;;14.80;60.40;;;;;;5088886;28;20259;-58
2022/05/23 00:30:23;;;;;;;2.15;1.10;;;14.80;59.70;;;;;;5089632;28;20276;-59
2022/05/23 00:35:46;;;;;;;2.78;1.10;;;14.80;59.80;;;;;;5088670;28;20617;-58
2022/05/23 00:38:17;;;;;;;2.83;1.05;;;14.90;59.80;;;;;;5089175;28;20197;-58
2022/05/23 00:43:13;;;;;;;1.10;0.93;;;14.90;59.90;;;;;;5088154;28;20190;-58
2022/05/23 00:43:42;;;;;;;1.85;1.00;;;14.90;60.50;;;;;;5089227;28;20624;-58
2022/05/23 00:46:14;;;;;;;2.42;1.13;;;15.00;59.90;;;;;;5086641;28;20202;-58
2022/05/23 00:48:45;;;;;;;2.13;1.25;;;15.00;60.20;;;;;;5087445;28;20239;-58
2022/05/23 00:51:20;;;;;;;1.13;0.80;;;15.00;60.40;;;;;;5089502;28;20272;-58
2022/05/23 00:53:52;;;;;;;1.27;0.77;;;15.10;60.50;;;;;;5087482;28;20334;-58
2022/05/23 00:56:26;;;;;;;1.40;1.08;;;15.10;60.40;;;;;;5089147;28;20190;-58
2022/05/23 00:59:01;;;;;;;1.10;1.00;;;15.20;60.20;;;;;;5088727;28;20734;-58
2022/05/23 01:01:33;;;;;;;1.20;0.90;;;15.10;60.10;;;;;;5088491;28;20221;-58
2022/05/23 01:04:04;;;;;;;1.55;0.90;;;15.20;60.00;;;;;;5088898;28;20229;-58
2022/05/23 01:06:37;;;;;;;1.52;1.13;;;15.20;59.90;;;;;;5088196;28;20222;-58
2022/05/23 01:09:08;;;;;;;1.20;1.00;;;15.30;60.00;;;;;;5085516;28;20203;-59
2022/05/23 01:11:39;;;;;;;1.42;0.90;;;15.30;59.90;;;;;;5087152;28;20366;-58
2022/05/23 01:14:10;;;;;;;1.95;1.10;;;15.40;60.80;;;;;;5088645;28;20294;-58
2022/05/23 01:16:41;;;;;;;1.35;0.90;;;15.30;60.00;;;;;;5087933;28;20187;-58
2022/05/23 01:19:11;;;;;;;2.20;1.10;;;15.40;60.00;;;;;;5088596;28;20646;-58
2022/05/23 01:21:51;;;;;;;1.83;1.02;;;15.40;60.00;;;;;;5087870;28;20190;-57
2022/05/23 01:24:30;;;;;;;1.15;1.05;;;15.40;60.00;;;;;;5088741;28;20296;-58
2022/05/23 01:27:04;;;;;;;1.27;0.93;;;15.50;60.10;;;;;;5088079;28;20259;-58
2022/05/23 01:29:35;;;;;;;2.58;1.00;;;15.50;60.20;;;;;;5087749;28;20250;-58
2022/05/23 01:32:06;;;;;;;1.55;1.10;;;15.50;60.10;;;;;;5085910;28;20309;-58
2022/05/23 01:34:36;;;;;;;1.95;0.95;;;15.60;60.10;;;;;;5087677;28;20293;-58
2022/05/23 01:37:07;;;;;;;1.00;0.80;;;15.60;60.10;;;;;;5088274;28;20277;-58
2022/05/23 01:39:37;;;;;;;1.20;0.80;;;15.60;60.10;;;;;;5087216;28;20733;-58
2022/05/23 01:42:11;;;;;;;1.50;1.00;;;15.60;60.10;;;;;;5085600;28;20202;-59
2022/05/23 01:44:41;;;;;;;1.60;0.90;;;15.60;60.00;;;;;;5087554;28;20210;-58
2022/05/23 01:47:14;;;;;;;0.85;0.80;;;15.70;59.90;;;;;;5087645;28;20214;-58
2022/05/23 01:49:45;;;;;;;1.05;0.82;;;15.70;59.80;;;;;;5088118;28;20229;-57
2022/05/23 01:52:16;;;;;;;2.00;0.90;;;15.70;59.80;;;;;;5089664;28;20708;-58
2022/05/23 01:54:46;;;;;;;1.67;1.10;;;15.80;59.90;;;;;;5091841;28;20721;-58
2022/05/23 01:57:19;;;;;;;1.63;0.88;;;15.80;59.90;;;;;;5092504;28;20225;-58
2022/05/23 02:02:36;;;;;;;0.88;0.80;;;15.90;60.00;;;;;;5090956;28;20802;-58
2022/05/23 02:05:07;;;;;;;2.17;1.00;;;15.90;59.90;;;;;;5091665;28;20558;-58
2022/05/23 02:07:37;;;;;;;1.02;0.80;;;15.90;59.90;;;;;;5091927;28;20258;-58
2022/05/23 02:10:09;;;;;;;1.25;0.90;;;15.90;59.90;;;;;;5091491;28;20202;-58
2022/05/23 02:12:42;;;;;;;1.20;0.85;;;16.00;60.00;;;;;;5091701;28;20222;-57
2022/05/23 02:15:13;;;;;;;1.55;0.90;;;16.00;60.00;;;;;;5091717;28;20723;-57
2022/05/23 02:17:43;;;;;;;1.40;0.90;;;16.10;61.00;;;;;;5091366;28;20558;-58
2022/05/23 02:20:15;;;;;;;1.45;0.90;;;16.20;61.70;;;;;;5091633;28;20186;-58
2022/05/23 02:22:45;;;;;;;1.67;0.90;;;16.20;61.70;;;;;;5092281;28;20259;-58
2022/05/23 02:25:16;;;;;;;1.83;1.10;;;16.30;61.60;;;;;;5092099;28;20198;-58
2022/05/23 02:27:48;;;;;;;1.20;0.82;;;16.40;61.40;;;;;;5091584;28;20256;-58
2022/05/23 02:30:19;;;;;;;1.20;0.88;;;16.40;61.10;;;;;;5091619;28;20648;-58
2022/05/23 02:32:49;;;;;;;1.90;0.90;;;16.50;60.90;;;;;;5091675;28;20214;-58
2022/05/23 02:35:20;;;;;;;1.15;0.73;;;16.50;60.80;;;;;;5090714;28;20240;-58
2022/05/23 02:37:51;;;;;;;1.38;0.93;;;16.60;60.60;;;;;;5091238;28;20221;-58
2022/05/23 02:40:22;;;;;;;1.40;0.80;;;16.60;60.50;;;;;;5088252;28;20194;-58
2022/05/23 02:42:54;;;;;;;1.90;0.80;;;16.70;60.40;;;;;;5091425;28;20617;-58
2022/05/23 02:45:25;;;;;;;1.15;0.70;;;16.70;60.30;;;;;;5091630;28;20727;-59
2022/05/23 02:47:55;;;;;;;0.80;0.77;;;16.80;60.40;;;;;;5091308;28;20236;-58
2022/05/23 02:50:26;;;;;;;1.50;0.70;;;16.80;60.50;;;;;;5091295;28;20194;-58
2022/05/23 02:52:56;;;;;;;1.33;0.65;;;16.80;60.50;;;;;;5090618;28;20291;-58
2022/05/23 02:55:27;;;;;;;1.52;0.70;;;16.90;60.40;;;;;;5090951;28;20190;-58
2022/05/23 02:57:59;;;;;;;0.90;0.68;;;16.90;60.30;;;;;;5090155;28;20210;-58
2022/05/23 03:00:30;;;;;;;1.85;0.98;;;16.90;60.20;;;;;;5091005;28;20198;-58
2022/05/23 03:03:05;;;;;;;1.38;0.80;;;17.00;60.10;;;;;;5090346;28;20238;-57
2022/05/23 03:05:40;;;;;;;1.20;0.80;;;17.00;60.00;;;;;;5090785;28;20194;-57
2022/05/23 03:08:12;;;;;;;1.20;0.80;;;17.10;59.80;;;;;;5088643;28;20650;-57
2022/05/23 03:10:43;;;;;;;1.83;0.80;;;17.10;59.80;;;;;;5090630;28;20222;-57
2022/05/23 03:13:15;;;;;;;1.92;0.88;;;17.10;59.70;;;;;;5090178;28;20263;-58
2022/05/23 03:15:46;;;;;;;2.30;0.90;;;17.10;59.60;;;;;;5089549;28;20186;-57
2022/05/23 03:18:17;;;;;;;2.55;0.90;;;17.20;59.60;;;;;;5090431;28;20244;-58
2022/05/23 03:20:48;;;;;;;1.45;0.90;;;17.20;59.50;;;;;;5074919;28;20198;-57
2022/05/23 03:29:00;;;;;;;2.20;0.82;;;17.30;59.30;;;;;;5072158;28;20194;-58
2022/05/23 03:31:31;;;;;;;2.40;1.02;;;17.40;59.30;;;;;;5073446;28;20233;-57
2022/05/23 03:34:01;;;;;;;1.73;1.00;;;17.40;59.30;;;;;;5073137;28;20231;-58
2022/05/23 03:36:32;;;;;;;1.60;0.80;;;17.40;59.20;;;;;;5072599;28;20195;-57
2022/05/23 03:39:03;;;;;;;1.98;0.90;;;17.40;59.10;;;;;;5073015;28;20220;-57
2022/05/23 03:41:34;;;;;;;1.40;0.85;;;17.40;59.10;;;;;;5071767;28;20190;-57
2022/05/23 03:44:08;;;;;;;1.33;1.00;;;17.50;59.10;;;;;;5088776;28;20213;-58
2022/05/23 03:46:39;;;;;;;1.30;0.85;;;17.50;59.10;;;;;;5089347;28;20190;-57
2022/05/23 03:49:09;;;;;;;1.83;1.10;;;17.50;59.10;;;;;;5088352;28;20202;-58
2022/05/23 03:51:40;;;;;;;1.65;0.82;;;17.50;59.10;;;;;;5089898;28;20263;-57
2022/05/23 03:54:10;;;;;;;1.85;1.00;;;17.60;59.00;;;;;;5090019;28;20264;-58
2022/05/23 03:56:41;;;;;;;1.75;0.88;;;17.60;58.90;;;;;;5090877;28;20190;-57
2022/05/23 03:59:13;;;;;;;1.42;0.80;;;17.60;58.90;;;;;;5088035;28;20194;-58
2022/05/23 04:01:44;;;;;;;1.52;0.85;;;17.60;58.90;;;;;;5088372;28;20186;-57
2022/05/23 04:04:14;;;;;;;1.58;0.90;;;17.70;59.00;;;;;;5089277;28;20264;-57
2022/05/23 04:06:45;;;;;;;2.58;1.15;;;17.70;59.10;;;;;;5089764;28;20226;-57
2022/05/23 04:09:15;;;;;;;2.22;1.08;;;17.70;59.10;;;;;;5088620;28;20733;-58
2022/05/23 04:11:47;;;;;;;1.08;0.93;;;17.70;58.90;;;;;;5088844;28;20258;-58
2022/05/23 04:14:19;;;;;;;1.40;0.98;;;17.80;58.90;;;;;;5089070;28;20210;-57
2022/05/23 04:16:51;;;;;;;1.10;1.00;;;17.80;58.80;;;;;;5089294;28;20232;-57
2022/05/23 04:19:22;;;;;;;2.05;1.10;;;17.80;58.80;;;;;;5088880;28;20198;-57
2022/05/23 04:21:53;;;;;;;3.08;1.05;;;17.80;58.70;;;;;;5088800;28;20255;-57
2022/05/23 04:24:23;;;;;;;0.80;0.80;;;17.80;58.60;;;;;;5089622;28;20221;-57
2022/05/23 04:26:57;;;;;;;1.90;0.98;;;17.80;58.50;;;;;;5088820;28;20198;-57
2022/05/23 04:29:29;;;;;;;2.75;1.30;;;17.80;58.50;;;;;;5088674;28;20214;-57
2022/05/23 04:32:00;;;;;;;3.45;1.25;;;17.90;58.40;;;;;;5087324;28;20246;-58
2022/05/23 04:37:17;;;;;;;1.77;1.35;;;17.90;58.30;;;;;;5085777;28;20208;-58
2022/05/23 04:39:47;;;;;;;1.67;1.30;;;17.90;58.30;;;;;;5089014;28;20287;-57
2022/05/23 04:42:18;;;;;;;2.90;1.60;;;17.90;58.30;;;;;;5088508;28;20251;-58
2022/05/23 04:44:52;;;;;;;2.63;1.50;;;17.90;58.30;;;;;;5088786;28;20271;-57
2022/05/23 04:50:06;;;;;;;2.20;1.50;;;17.90;58.30;;;;;;5077197;28;20277;-57
2022/05/23 04:52:36;;;;;;;3.83;1.80;;;17.90;58.20;;;;;;5089204;28;20309;-58
2022/05/23 04:55:08;;;;;;;3.72;1.98;;;17.90;58.20;;;;;;5089683;28;20281;-57
2022/05/23 04:57:39;;;;;;;2.42;1.60;;;17.90;58.20;;;;;;5088266;28;20191;-57
2022/05/23 05:00:13;;;;;;;3.75;1.80;;;17.90;58.20;;;;;;5088589;28;20280;-58
2022/05/23 05:02:44;;;;;;;2.88;1.77;;;17.90;58.10;;;;;;5088557;28;20197;-57
2022/05/23 05:05:15;;;;;;;3.50;2.40;;;17.90;58.00;;;;;;5087815;28;20212;-57
2022/05/23 05:07:46;;;;;;;4.07;2.40;;;17.90;58.00;;;;;;5086898;28;20675;-57
2022/05/23 05:10:16;;;;;;;3.20;2.47;;;17.90;58.00;;;;;;5088807;28;20230;-57
2022/05/23 05:12:47;;;;;;;5.03;2.90;;;17.90;58.00;;;;;;5083315;28;20686;-57
2022/05/23 05:15:19;;;;;;;4.85;2.85;;;17.90;57.90;;;;;;5086636;28;20198;-57
2022/05/23 05:17:50;;;;;;;5.15;3.10;;;17.90;57.90;;;;;;5088805;28;20259;-57
2022/05/23 05:20:21;;;;;;;6.18;3.10;;;17.90;57.90;;;;;;5087580;28;20227;-57
2022/05/23 05:22:52;;;;;;;4.90;3.25;;;17.90;57.90;;;;;;5088410;28;20228;-57
2022/05/23 05:25:23;;;;;;;6.35;3.90;;;17.90;57.80;;;;;;5089054;28;20198;-57
2022/05/23 05:27:54;;;;;;;6.47;3.95;;;17.90;57.90;;;;;;5087791;28;20190;-57
2022/05/23 05:30:26;;;;;;;7.68;4.03;;;17.90;57.90;;;;;;5087964;28;20186;-58
2022/05/23 05:33:00;;;;;;;9.13;5.15;;;17.90;57.90;;;;;;5087734;28;20218;-57
2022/05/23 05:35:35;;;;;;;7.05;4.93;;;17.90;57.90;;;;;;5088179;28;20218;-57
2022/05/23 05:38:10;;;;;;;8.00;4.55;;;17.80;57.80;;;;;;5086298;28;20226;-57
2022/05/23 05:40:41;;;;;;;7.57;4.63;;;17.80;57.80;;;;;;5088529;28;20281;-58
2022/05/23 05:43:16;;;;;;;6.15;4.22;;;17.80;57.80;;;;;;5082547;28;20552;-57
2022/05/23 05:45:52;;;;;;;8.93;4.28;;;17.80;57.80;;;;;;5086282;28;20271;-57
2022/05/23 05:48:22;;;;;;;8.32;5.22;;;17.80;57.90;;;;;;5087817;28;20201;-57
2022/05/23 05:50:53;;;;;;;6.60;4.85;;;17.80;57.80;;;;;;5087533;28;20259;-57
2022/05/23 05:53:26;;;;;;;9.93;5.80;;;17.70;57.70;;;;;;5085690;28;20378;-57
2022/05/23 05:55:57;;;;;;;7.90;5.60;;;17.70;57.70;;;;;;5088472;28;20618;-57
2022/05/23 05:58:27;;;;;;;10.82;6.30;;;17.70;57.60;;;;;;5087241;28;20255;-58
2022/05/23 06:01:00;;;;;;;8.32;6.03;;;17.70;57.60;;;;;;5087236;28;20194;-55
2022/05/23 06:03:31;;;;;;;8.15;5.78;;;17.70;57.60;;;;;;5087562;28;20260;-58
2022/05/23 06:11:34;;;;;;;8.73;6.53;;;17.60;57.60;;;;;;5071136;28;20719;-58
2022/05/23 06:14:06;;;;;;;10.30;6.43;;;17.60;57.60;;;;;;5076078;28;20206;-58
2022/05/23 06:16:40;;;;;;;8.27;6.45;;;17.60;57.50;;;;;;5087049;28;20191;-58
2022/05/23 06:19:10;;;;;;;9.85;6.07;;;17.50;57.50;;;;;;5087274;28;20194;-57
2022/05/23 06:21:41;;;;;;;9.02;5.65;;;17.50;57.50;;;;;;5087116;28;21041;-58
2022/05/23 06:24:12;;;;;;;8.13;6.40;;;17.50;57.50;;;;;;5087222;28;20271;-58
2022/05/23 06:26:44;;;;;;;9.32;6.30;;;17.50;57.40;;;;;;5087466;28;20213;-56
2022/05/23 06:29:14;;;;;;;9.18;6.03;;;17.50;57.40;;;;;;5088266;28;20190;-56
2022/05/23 06:31:47;;;;;;;10.40;6.43;;;17.50;57.40;;;;;;5085611;28;20218;-57
2022/05/23 06:34:18;;;;;;;11.38;6.72;;;17.40;57.40;;;;;;5087251;28;20222;-58
2022/05/23 06:36:48;;;;;;;9.52;5.90;;;17.40;57.40;;;;;;5088031;28;20719;-59
2022/05/23 06:39:19;;;;;;;8.95;6.15;;;17.40;57.40;;;;;;5089728;28;20228;-57
2022/05/23 06:41:50;;;;;;;8.63;6.15;;;17.40;57.40;;;;;;5091876;28;20737;-58
2022/05/23 06:44:20;;;;;;;8.77;5.90;;;17.30;57.30;;;;;;5090337;28;20210;-57
2022/05/23 06:46:53;;;;;;;9.52;6.32;;;17.30;57.40;;;;;;5091266;28;20186;-57
2022/05/23 06:49:23;;;;;;;7.18;5.90;;;17.30;57.30;;;;;;5090541;28;20246;-57
2022/05/23 06:51:54;;;;;;;9.40;6.03;;;17.30;57.30;;;;;;5091022;28;20307;-57
2022/05/23 06:54:30;;;;;;;7.97;5.93;;;17.20;57.30;;;;;;5089857;28;20275;-58
2022/05/23 06:57:01;;;;;;;8.73;5.97;;;17.20;57.30;;;;;;5091439;28;20196;-57
2022/05/23 06:59:31;;;;;;;8.25;5.60;;;17.20;57.30;;;;;;5088352;28;20317;-57
2022/05/23 07:02:06;;;;;;;7.93;5.72;;;17.20;57.30;;;;;;5090510;28;20293;-57
2022/05/23 07:13:08;;;;;;;8.05;6.43;;;17.10;57.20;;;;;;5047408;28;20597;-57
2022/05/23 07:15:46;;;;;;;9.43;6.10;;;17.10;57.20;;;;;;5072487;28;20190;-57
2022/05/23 07:18:20;;;;;;;9.55;6.15;;;17.00;57.20;;;;;;5089527;28;21548;-58
2022/05/23 07:20:50;;;;;;;7.70;6.20;;;17.00;57.30;;;;;;5089842;28;20190;-56
2022/05/23 07:23:21;;;;;;;7.30;5.90;;;17.00;57.30;;;;;;5089065;28;20210;-58
2022/05/23 07:25:51;;;;;;;7.55;6.32;;;17.00;57.30;;;;;;5089545;28;20259;-57
2022/05/23 07:28:22;;;;;;;8.60;6.47;;;16.90;57.30;;;;;;5085930;28;20626;-57
2022/05/23 07:30:52;;;;;;;8.25;6.40;;;16.90;57.30;;;;;;5072912;28;20195;-57
2022/05/23 07:33:25;;;;;;;10.18;6.78;;;16.90;57.30;;;;;;5072845;28;20318;-57
2022/05/23 07:35:57;;;;;;;7.28;5.53;;;16.90;57.30;;;;;;5073010;28;20199;-57
2022/05/23 07:38:28;;;;;;;7.97;6.07;;;16.90;57.30;;;;;;5072836;28;20651;-58
2022/05/23 07:40:59;;;;;;;7.20;5.70;;;16.80;57.30;;;;;;5072905;28;20195;-57
2022/05/23 07:43:32;;;;;;;8.85;6.20;;;16.80;57.30;;;;;;5072190;28;20223;-58
2022/05/23 07:46:06;;;;;;;8.43;6.20;;;16.80;57.30;;;;;;5072029;28;20195;-58
2022/05/23 07:48:39;;;;;;;9.27;6.53;;;16.70;57.30;;;;;;5072735;28;20198;-58
2022/05/23 07:51:11;;;;;;;7.38;5.90;;;16.70;57.30;;;;;;5072619;28;20256;-57
2022/05/23 08:02:01;;;;;;;8.00;5.55;;;16.60;57.30;;;;;;5052711;28;20202;-57
2022/05/23 08:04:34;;;;;;;8.00;6.00;;;16.60;57.30;;;;;;5052503;28;20247;-57
2022/05/23 08:07:04;;;;;;;8.98;6.20;;;16.60;57.40;;;;;;5052508;28;20199;-58
2022/05/23 08:09:35;;;;;;;6.43;5.20;;;16.60;57.40;;;;;;5052503;28;20192;-57
2022/05/23 08:12:06;;;;;;;7.75;5.90;;;16.50;57.40;;;;;;5052734;28;20195;-57
2022/05/23 08:14:37;;;;;;;8.18;6.45;;;16.50;57.40;;;;;;5059211;28;20292;-58
2022/05/23 08:17:08;;;;;;;8.18;5.57;;;16.50;57.40;;;;;;5072034;28;20202;-58
2022/05/23 08:19:41;;;;;;;6.50;5.40;;;16.50;57.40;;;;;;5071808;28;20716;-58
2022/05/23 08:22:12;;;;;;;8.45;5.65;;;16.50;57.40;;;;;;5071534;28;20190;-58
2022/05/23 08:24:42;;;;;;;6.78;5.10;;;16.40;57.40;;;;;;5072200;28;20215;-58
2022/05/23 08:27:13;;;;;;;7.40;5.60;;;16.40;57.50;;;;;;5072194;28;20195;-57
2022/05/23 08:29:45;;;;;;;6.68;4.95;;;16.40;57.50;;;;;;5071807;28;20274;-58
2022/05/23 08:32:17;;;;;;;6.72;5.03;;;16.40;57.50;;;;;;5072061;28;20293;-58
2022/05/23 08:34:49;;;;;;;6.15;5.30;;;16.40;57.50;;;;;;5071937;28;20576;-57
2022/05/23 08:37:20;;;;;;;7.90;5.28;;;16.40;57.60;;;;;;5071604;28;20213;-55
2022/05/23 08:39:51;;;;;;;9.77;6.00;;;16.30;57.60;;;;;;5071403;28;20257;-55
2022/05/23 08:42:31;;;;;;;9.30;5.63;;;16.30;57.40;;;;;;5071581;28;20723;-57
2022/05/23 08:45:12;;;;;;;7.38;5.25;;;16.30;57.40;;;;;;5070828;28;20195;-57
2022/05/23 08:47:52;;;;;;;8.68;5.57;;;16.30;57.40;;;;;;5079387;28;20685;-58
2022/05/23 08:50:44;;;;;;;7.85;5.40;;;16.20;57.40;;;;;;5088142;28;20235;-56
2022/05/23 08:53:19;;;;;;;5.80;5.15;;;16.20;57.50;;;;;;5085973;28;20236;-57
2022/05/23 08:55:54;;;;;;;7.30;5.43;;;16.20;57.40;;;;;;5088419;28;20189;-56
2022/05/23 08:58:29;;;;;;;8.95;5.32;;;16.20;57.50;;;;;;5088767;28;20190;-57
2022/05/23 09:01:05;;;;;;;7.03;5.07;;;16.20;57.60;;;;;;5088681;28;20194;-57
2022/05/23 09:03:39;;;;;;;9.52;5.32;;;16.20;57.60;;;;;;5088111;28;20214;-56
2022/05/23 09:06:15;;;;;;;7.88;5.03;;;16.10;57.50;;;;;;5086552;28;20229;-57
2022/05/23 09:08:52;;;;;;;6.55;5.03;;;16.10;57.60;;;;;;5087679;28;20201;-56
2022/05/23 09:11:34;;;;;;;8.50;5.38;;;16.10;57.60;;;;;;5087400;28;20716;-58
2022/05/23 09:14:06;;;;;;;8.77;5.30;;;16.10;57.60;;;;;;5087708;28;20275;-58
2022/05/23 09:16:40;;;;;;;6.95;5.53;;;16.10;57.60;;;;;;5088624;28;20291;-58
2022/05/23 09:19:19;;;;;;;7.20;5.40;;;16.10;57.70;;;;;;5088816;28;20201;-58
2022/05/23 09:24:42;;;;;;;7.63;5.70;;;16.10;57.70;;;;;;5088355;28;20225;-58
2022/05/23 09:27:19;;;;;;;6.72;5.03;;;16.00;57.70;;;;;;5087755;28;20216;-57
2022/05/23 09:29:54;;;;;;;7.70;5.22;;;16.00;57.70;;;;;;5087938;28;20194;-57
2022/05/23 09:32:28;;;;;;;7.68;5.15;;;16.00;57.80;;;;;;5086593;28;20221;-58
2022/05/23 09:35:00;;;;;;;6.55;4.90;;;16.10;57.80;;;;;;5087129;28;20285;-57
2022/05/23 09:37:42;;;;;;;6.68;4.72;;;16.00;57.80;;;;;;5087922;28;20576;-57
2022/05/23 09:40:24;;;;;;;6.22;5.03;;;16.00;58.40;;;;;;5088595;28;20223;-57
2022/05/23 09:49:10;;;;;;;7.45;5.03;;;16.00;57.80;;;;;;5087160;28;20247;-59
2022/05/23 09:51:56;;;;;;;6.95;5.07;;;16.00;57.80;;;;;;5087108;28;20197;-57
2022/05/23 09:54:30;;;;;;;7.47;5.13;;;16.00;57.90;;;;;;5086119;28;20225;-57
2022/05/23 09:57:04;;;;;;;6.90;5.72;;;16.00;57.90;;;;;;5085284;28;20193;-59
2022/05/23 09:59:36;;;;;;;6.82;5.07;;;16.00;57.90;;;;;;5087624;28;20250;-57
2022/05/23 10:02:20;;;;;;;6.65;5.10;;;16.00;58.00;;;;;;5088405;28;20283;-58
2022/05/23 10:04:51;;;;;;;6.35;5.07;;;16.00;58.00;;;;;;5087385;28;20330;-57
2022/05/23 10:07:30;;;;;;;6.53;5.80;;;15.90;58.00;;;;;;5088160;28;20210;-57
2022/05/23 10:10:03;;;;;;;6.63;5.22;;;16.00;58.10;;;;;;5087478;28;20194;-58
2022/05/23 10:12:34;;;;;;;5.90;5.20;;;16.00;58.10;;;;;;5087238;28;20237;-57
2022/05/23 10:15:16;;;;;;;7.18;5.15;;;16.00;58.10;;;;;;5089951;28;20194;-56
2022/05/23 10:17:46;;;;;;;6.25;5.28;;;16.00;58.10;;;;;;5091768;28;20190;-57
2022/05/23 10:20:37;;;;;;;6.35;5.10;;;16.00;58.20;;;;;;5091569;28;20194;-57
2022/05/23 10:23:09;;;;;;;6.18;4.70;;;16.00;58.80;;;;;;5091552;28;20214;-56
2022/05/23 10:25:47;;;;;;;6.68;5.38;;;16.00;58.20;;;;;;5091686;28;20202;-56
2022/05/23 10:28:23;;;;;;;6.75;4.93;;;16.00;58.20;;;;;;5091778;28;20856;-56
2022/05/23 10:31:01;;;;;;;5.70;4.80;;;16.00;58.20;;;;;;5091390;28;20221;-57
2022/05/23 10:33:33;;;;;;;6.90;5.40;;;15.90;58.20;;;;;;5091060;28;20298;-58
2022/05/23 10:36:06;;;;;;;6.10;4.78;;;16.00;58.30;;;;;;5090132;28;20222;-58
2022/05/23 10:44:32;;;;;;;6.85;5.03;;;15.90;58.30;;;;;;5091148;28;20217;-59
2022/05/23 10:47:11;;;;;;;5.40;4.43;;;16.00;58.30;;;;;;5090735;28;20198;-59
2022/05/23 10:49:50;;;;;;;5.40;4.55;;;15.90;58.20;;;;;;5090272;28;20273;-59
2022/05/23 10:52:28;;;;;;;6.20;4.65;;;15.90;58.30;;;;;;5091085;28;20947;-57
2022/05/23 10:55:08;;;;;;;6.95;4.88;;;16.00;58.40;;;;;;5091391;28;20298;-57
2022/05/23 10:57:56;;;;;;;6.50;5.13;;;16.00;58.40;;;;;;5091056;28;20182;-57
2022/05/23 11:00:33;;;;;;;6.38;4.70;;;15.90;58.40;;;;;;5088185;28;20195;-58
2022/05/23 11:03:10;;;;;;;6.85;4.53;;;16.00;58.40;;;;;;5090728;28;20243;-58
2022/05/23 11:05:46;;;;;;;5.65;4.13;;;15.90;58.40;;;;;;5089971;28;20194;-56
2022/05/23 11:08:29;;;;;;;6.13;4.22;;;15.90;58.40;;;;;;5089989;28;20194;-58
2022/05/23 11:11:07;;;;;;;6.22;4.70;;;15.90;58.40;;;;;;5090041;28;20219;-57
2022/05/23 11:14:03;;;;;;;5.50;4.28;;;16.00;58.40;;;;;;5089821;28;20314;-58
2022/05/23 11:16:39;;;;;;;5.82;4.60;;;15.90;58.30;;;;;;5090277;28;20247;-57
2022/05/23 11:19:27;;;;;;;6.57;4.68;;;16.00;58.40;;;;;;5090949;28;20653;-58
2022/05/23 11:22:04;;;;;;;5.43;4.28;;;15.90;58.30;;;;;;5090065;28;20191;-59
2022/05/23 11:24:42;;;;;;;5.03;4.13;;;15.90;58.30;;;;;;5089445;28;20217;-59
2022/05/23 11:35:53;;;;;;;5.60;4.57;;;15.90;58.30;;;;;;5090370;28;20201;-58
2022/05/23 11:38:24;;;;;;;4.93;4.25;;;15.90;58.40;;;;;;5089097;28;20198;-59
2022/05/23 11:41:08;;;;;;;5.10;4.35;;;15.90;58.40;;;;;;5090024;28;20227;-58
2022/05/23 11:43:39;;;;;;;6.20;4.43;;;15.90;58.50;;;;;;5089655;28;20222;-58
2022/05/23 11:46:15;;;;;;;5.53;4.28;;;15.90;58.40;;;;;;5090501;28;20272;-59
2022/05/23 11:49:00;;;;;;;5.57;4.30;;;15.90;58.50;;;;;;5090260;28;20267;-58
2022/05/23 11:51:41;;;;;;;5.43;4.10;;;15.90;58.50;;;;;;5089936;28;20190;-57
2022/05/23 11:54:36;;;;;;;4.53;4.05;;;15.90;58.40;;;;;;5085780;28;20673;-56
2022/05/23 11:57:46;;;;;;;4.95;3.95;;;15.90;58.40;;;;;;5089359;28;20198;-58
2022/05/23 12:00:35;;;;;;;4.38;3.67;;;16.00;58.40;;;;;;5073401;28;20198;-58
2022/05/23 12:03:16;;;;;;;5.65;4.10;;;15.90;58.40;;;;;;5089897;28;20277;-58
2022/05/23 12:05:47;;;;;;;6.15;4.07;;;15.90;58.30;;;;;;5088779;28;20638;-58
2022/05/23 12:08:33;;;;;;;4.85;4.35;;;16.00;58.40;;;;;;5086650;28;20217;-58
2022/05/23 12:11:04;;;;;;;5.07;3.85;;;15.90;58.30;;;;;;5087941;28;20182;-59
2022/05/23 12:13:48;;;;;;;5.43;4.35;;;15.90;58.40;;;;;;5089928;28;20630;-59
2022/05/23 12:16:47;;;;;;;4.43;3.60;;;15.90;58.40;;;;;;5088822;28;20194;-59
2022/05/23 12:19:35;;;;;;;5.28;4.43;;;15.90;58.40;;;;;;5088253;28;20186;-59
2022/05/23 12:22:32;;;;;;;4.82;3.80;;;15.90;58.40;;;;;;5088603;28;20187;-59
2022/05/23 12:25:20;;;;;;;5.15;3.95;;;15.90;58.40;;;;;;5088904;28;20190;-58
2022/05/23 12:28:15;;;;;;;4.55;3.65;;;15.90;58.40;;;;;;5052181;28;20249;-59
2022/05/23 12:31:02;;;;;;;3.90;3.47;;;15.90;58.40;;;;;;5052281;28;20205;-59
2022/05/23 12:33:32;;;;;;;5.13;3.90;;;15.90;58.40;;;;;;5049316;28;20224;-59
2022/05/23 12:36:13;;;;;;;4.50;3.63;;;15.90;58.40;;;;;;5051421;28;20199;-58
2022/05/23 12:39:03;;;;;;;4.35;3.70;;;15.90;58.50;;;;;;5071181;28;20199;-59
2022/05/23 12:42:15;;;;;;;5.05;3.75;;;15.90;58.50;;;;;;5065741;28;20655;-59
2022/05/23 12:45:20;;;;;;;5.18;3.75;;;15.90;59.00;;;;;;5050661;28;20223;-59
2022/05/23 12:48:17;;;;;;;3.88;3.50;;;15.90;58.40;;;;;;5070196;28;20212;-58
2022/05/23 12:51:12;;;;;;;4.13;3.53;;;15.90;58.40;;;;;;5070143;28;20285;-59
2022/05/23 12:54:06;;;;;;;4.00;3.30;;;15.90;58.40;;;;;;5070318;28;20225;-59
2022/05/23 12:56:48;;;;;;;5.25;3.65;;;15.90;58.40;;;;;;5069747;28;20195;-58
2022/05/23 12:59:47;;;;;;;3.95;3.30;;;15.90;58.30;;;;;;5069969;28;20198;-59
2022/05/23 13:02:23;;;;;;;4.60;3.42;;;15.90;58.40;;;;;;5069770;28;20195;-58
2022/05/23 13:04:59;;;;;;;4.07;3.35;;;15.90;58.40;;;;;;5069547;28;20191;-59
2022/05/23 13:07:38;;;;;;;4.75;3.25;;;15.90;58.40;;;;;;5069745;28;20190;-59
2022/05/23 13:10:14;;;;;;;5.05;3.15;;;15.80;58.40;;;;;;5069580;28;20252;-58
2022/05/23 13:12:46;;;;;;;4.88;3.70;;;15.80;58.40;;;;;;5069022;28;20194;-59
2022/05/23 13:15:27;;;;;;;3.90;3.35;;;15.80;58.40;;;;;;5069209;28;20625;-58
2022/05/23 13:22:05;;;;;;;4.00;3.40;;;15.80;58.40;;;;;;5070496;28;20198;-54
2022/05/23 13:23:36;;;;;;;3.33;2.85;;;15.80;58.40;;;;;;5069766;28;20210;-59
2022/05/23 13:26:12;;;;;;;3.95;3.53;;;15.80;58.40;;;;;;5069702;28;20268;-59
2022/05/23 13:28:44;;;;;;;4.05;3.38;;;15.80;58.40;;;;;;5070021;28;20201;-59
2022/05/23 13:31:29;;;;;;;3.38;2.92;;;15.80;58.30;;;;;;5069789;28;20636;-57
2022/05/23 13:34:00;;;;;;;4.25;3.15;;;15.80;58.40;;;;;;5069520;28;20223;-59
2022/05/23 13:36:43;;;;;;;3.78;3.05;;;15.80;58.30;;;;;;5069816;28;20345;-58
2022/05/23 13:39:16;;;;;;;3.50;2.90;;;15.80;58.30;;;;;;5069965;28;20214;-57
2022/05/23 13:41:49;;;;;;;3.70;3.15;;;15.80;58.40;;;;;;5069339;28;20549;-58
2022/05/23 13:44:27;;;;;;;4.07;3.40;;;15.80;58.30;;;;;;5069476;28;20246;-59
2022/05/23 13:47:02;;;;;;;3.75;3.22;;;15.80;58.40;;;;;;5069990;28;20230;-59
2022/05/23 13:49:38;;;;;;;3.80;2.97;;;15.70;58.30;;;;;;5073979;28;20194;-58
2022/05/23 13:52:14;;;;;;;3.85;3.30;;;15.70;58.30;;;;;;5073955;28;20251;-58
2022/05/23 13:54:55;;;;;;;4.15;3.55;;;15.70;58.30;;;;;;5073396;28;20735;-57
2022/05/23 13:57:30;;;;;;;3.78;3.28;;;15.70;58.40;;;;;;5073339;28;20657;-59
2022/05/23 14:00:05;;;;;;;4.00;3.25;;;15.70;58.40;;;;;;5073258;28;20327;-59
2022/05/23 14:02:41;;;;;;;3.55;3.13;;;15.70;58.40;;;;;;5073123;28;20226;-59
2022/05/23 14:05:12;;;;;;;4.20;3.22;;;15.70;58.40;;;;;;5073140;28;20202;-58
2022/05/23 14:07:45;;;;;;;3.50;3.20;;;15.70;58.40;;;;;;5072632;28;20183;-59
2022/05/23 14:10:22;;;;;;;3.75;3.00;;;15.70;58.40;;;;;;5053330;28;20741;-58
2022/05/23 14:12:55;;;;;;;4.10;3.05;;;15.70;58.40;;;;;;5066594;28;20210;-58
2022/05/23 14:15:29;;;;;;;3.58;2.80;;;15.70;58.40;;;;;;5072261;28;20226;-57
2022/05/23 14:18:00;;;;;;;3.50;2.80;;;15.70;58.40;;;;;;5071055;28;20272;-56
2022/05/23 14:20:39;;;;;;;4.22;2.97;;;15.70;58.40;;;;;;5072530;28;20280;-56
2022/05/23 14:23:24;;;;;;;3.15;2.83;;;15.70;58.40;;;;;;5072549;28;20562;-57
2022/05/23 14:26:08;;;;;;;3.35;2.70;;;15.70;58.40;;;;;;5072526;28;20300;-57
2022/05/23 14:28:52;;;;;;;3.80;3.08;;;15.60;58.30;;;;;;5072198;28;20198;-57